createdAt,value
2023-03-11T00:03:54.837Z,13.15
2023-03-11T00:08:57.639Z,15.28
2023-03-11T00:14:00.563Z,13.59
2023-03-11T00:19:03.557Z,12.43
2023-03-11T00:24:06.809Z,14.69
2023-03-11T00:29:09.929Z,14.56
2023-03-11T00:34:12.718Z,12.59
2023-03-11T00:39:15.622Z,14.15
2023-03-11T00:44:18.455Z,15.63
2023-03-11T00:49:21.276Z,13.88
2023-03-11T00:54:24.089Z,12.08
2023-03-11T00:59:26.896Z,11.03
2023-03-11T01:04:29.913Z,12.82
2023-03-11T01:09:32.776Z,15.10
2023-03-11T01:14:35.682Z,15.03
2023-03-11T01:19:38.518Z,12.76
2023-03-11T01:24:41.680Z,11.63
2023-03-11T01:29:44.461Z,14.01
2023-03-11T01:34:47.276Z,15.27
2023-03-11T01:39:50.123Z,13.28
2023-03-11T01:44:53.056Z,11.61
2023-03-11T01:49:55.919Z,10.75
2023-03-11T01:54:58.728Z,13.15
2023-03-11T02:00:02.810Z,15.14
2023-03-11T02:05:06.212Z,14.52
2023-03-11T02:10:11.221Z,12.43
2023-03-11T02:15:14.150Z,11.70
2023-03-11T02:20:28.363Z,14.34
2023-03-11T02:25:36.115Z,14.68
2023-03-11T02:30:42.301Z,12.47
2023-03-11T02:35:45.491Z,11.27
2023-03-11T02:40:55.865Z,13.42
2023-03-11T02:45:58.756Z,15.28
2023-03-11T02:51:02.655Z,14.14
2023-03-11T02:56:05.583Z,12.16
2023-03-11T03:01:08.876Z,11.27
2023-03-11T03:06:11.864Z,13.74
2023-03-11T03:11:14.756Z,15.21
2023-03-11T03:16:18.076Z,13.45
2023-03-11T03:21:20.905Z,11.78
2023-03-11T03:26:23.766Z,10.76
2023-03-11T03:31:27.060Z,11.92
2023-03-11T03:36:29.973Z,14.70
2023-03-11T03:41:32.858Z,14.07
2023-03-11T03:46:35.773Z,12.07
2023-03-11T03:51:38.589Z,11.00
2023-03-11T03:56:41.499Z,13.08
2023-03-11T04:01:44.296Z,14.97
2023-03-11T04:06:47.153Z,13.24
2023-03-11T04:11:49.968Z,11.50
2023-03-11T04:16:52.860Z,10.79
2023-03-11T04:21:55.739Z,13.38
2023-03-11T04:26:58.539Z,15.02
2023-03-11T04:32:01.371Z,13.33
2023-03-11T04:37:04.358Z,11.57
2023-03-11T04:42:07.268Z,11.98
2023-03-11T04:47:10.188Z,14.56
2023-03-11T04:52:13.045Z,13.44
2023-03-11T04:57:15.890Z,11.54
2023-03-11T05:02:18.743Z,12.46
2023-03-11T05:07:21.591Z,14.72
2023-03-11T05:12:24.388Z,13.35
2023-03-11T05:17:27.232Z,11.59
2023-03-11T05:22:30.034Z,10.73
2023-03-11T05:27:33.280Z,13.25
2023-03-11T05:32:36.151Z,13.97
2023-03-11T05:37:39.407Z,11.98
2023-03-11T05:42:42.332Z,10.70
2023-03-11T05:47:45.205Z,9.97
2023-03-11T05:52:48.064Z,12.11
2023-03-11T05:57:52.403Z,14.44
2023-03-11T06:02:55.383Z,13.09
2023-03-11T06:07:58.254Z,11.49
2023-03-11T06:13:01.160Z,10.57
2023-03-11T06:18:04.964Z,12.37
2023-03-11T06:23:07.830Z,13.56
2023-03-11T06:28:10.705Z,11.52
2023-03-11T06:33:15.123Z,10.19
2023-03-11T06:38:17.874Z,9.68
2023-03-11T06:43:22.257Z,12.53
2023-03-11T06:48:26.256Z,12.68
2023-03-11T06:53:29.812Z,10.78
2023-03-11T06:58:33.629Z,9.85
2023-03-11T07:03:36.461Z,12.27
2023-03-11T07:08:39.351Z,11.75
2023-03-11T07:13:42.830Z,10.07
2023-03-11T07:18:47.073Z,10.31
2023-03-11T07:23:57.934Z,12.86
2023-03-11T07:29:01.550Z,11.20
2023-03-11T07:34:11.306Z,9.82
2023-03-11T07:39:16.804Z,10.31
2023-03-11T07:44:20.408Z,13.31
2023-03-11T07:49:23.310Z,12.26
2023-03-11T07:54:26.172Z,10.44
2023-03-11T07:59:29.324Z,9.85
2023-03-11T08:04:32.181Z,12.64
2023-03-11T08:09:35.529Z,12.95
2023-03-11T08:14:39.775Z,10.92
2023-03-11T08:19:42.646Z,9.99
2023-03-11T08:24:45.446Z,12.62
2023-03-11T08:29:48.265Z,12.26
2023-03-11T08:34:51.125Z,10.32
2023-03-11T08:39:54.039Z,10.23
2023-03-11T08:44:56.909Z,13.07
2023-03-11T08:49:59.774Z,12.31
2023-03-11T08:55:05.079Z,10.31
2023-03-11T09:00:11.025Z,10.80
2023-03-11T09:05:15.537Z,12.83
2023-03-11T09:10:19.141Z,10.97
2023-03-11T09:15:22.298Z,9.46
2023-03-11T09:20:25.094Z,10.38
2023-03-11T09:25:27.968Z,13.09
2023-03-11T09:30:31.128Z,12.25
2023-03-11T09:35:34.335Z,10.22
2023-03-11T09:40:57.470Z,10.16
2023-03-11T09:46:18.242Z,12.13
2023-03-11T09:51:27.533Z,10.03
2023-03-11T09:56:31.544Z,10.58
2023-03-11T10:01:34.746Z,11.58
2023-03-11T10:06:38.182Z,9.35
2023-03-11T10:11:47.350Z,8.70
2023-03-11T10:17:13.046Z,11.40
2023-03-11T10:22:29.853Z,9.84
2023-03-11T10:27:41.957Z,8.56
2023-03-11T10:32:49.814Z,11.20
2023-03-11T10:37:52.696Z,11.01
2023-03-11T10:42:57.526Z,8.90
2023-03-11T10:48:00.314Z,9.11
2023-03-11T10:53:13.550Z,11.53
2023-03-11T10:58:22.245Z,9.81
2023-03-11T11:03:25.138Z,8.31
2023-03-11T11:08:28.104Z,10.56
2023-03-11T11:13:34.692Z,10.88
2023-03-11T11:18:45.933Z,8.84
2023-03-11T11:24:00.182Z,7.57
2023-03-11T11:29:09.178Z,9.71
2023-03-11T11:34:29.066Z,10.87
2023-03-11T11:39:52.077Z,8.59
2023-03-11T11:45:05.740Z,7.81
2023-03-11T11:50:23.828Z,10.62
2023-03-11T11:55:28.565Z,9.65
2023-03-11T12:00:50.206Z,7.67
2023-03-11T12:06:02.836Z,7.41
2023-03-11T12:11:24.919Z,10.18
2023-03-11T12:16:45.926Z,8.52
2023-03-11T12:22:04.729Z,6.65
2023-03-11T12:27:23.064Z,7.51
2023-03-11T12:32:40.429Z,9.51
2023-03-11T12:37:43.311Z,7.38
2023-03-11T12:42:46.256Z,6.81
2023-03-11T12:48:17.027Z,9.22
2023-03-11T12:53:20.568Z,7.69
2023-03-11T12:59:09.603Z,6.17
2023-03-11T13:04:27.288Z,8.79
2023-03-11T13:09:31.541Z,8.24
2023-03-11T13:14:34.716Z,6.20
2023-03-11T13:19:46.975Z,8.18
2023-03-11T13:24:51.221Z,7.99
2023-03-11T13:29:56.029Z,5.95
2023-03-11T13:35:22.152Z,7.68
2023-03-11T13:40:38.630Z,6.46
2023-03-11T13:45:41.626Z,6.81
2023-03-11T13:51:13.599Z,8.19
2023-03-11T13:56:27.135Z,6.00
2023-03-11T14:01:29.984Z,7.25
2023-03-11T14:06:32.959Z,6.57
2023-03-11T14:11:35.820Z,6.12
2023-03-11T14:16:44.459Z,7.44
2023-03-11T14:21:51.612Z,5.79
2023-03-11T14:26:56.242Z,7.36
2023-03-11T14:31:59.594Z,5.80
2023-03-11T14:37:04.181Z,6.20
2023-03-11T14:42:19.078Z,6.95
2023-03-11T14:47:33.739Z,5.48
2023-03-11T14:52:50.876Z,7.46
2023-03-11T14:58:06.178Z,5.67
2023-03-11T15:03:32.560Z,6.73
2023-03-11T15:08:45.153Z,7.02
2023-03-11T15:13:50.808Z,5.07
2023-03-11T15:18:54.727Z,7.00
2023-03-11T15:24:05.266Z,6.52
2023-03-11T15:29:16.873Z,4.87
2023-03-11T15:34:28.923Z,7.11
2023-03-11T15:39:31.787Z,6.29
2023-03-11T15:44:41.224Z,4.47
2023-03-11T15:49:44.060Z,6.14
2023-03-11T15:54:55.025Z,5.68
2023-03-11T16:00:00.275Z,4.55
2023-03-11T16:05:11.858Z,6.88
2023-03-11T16:10:17.727Z,5.53
2023-03-11T16:15:29.176Z,4.27
2023-03-11T16:20:52.191Z,6.75
2023-03-11T16:26:00.280Z,6.73
2023-03-11T16:31:03.891Z,4.63
2023-03-11T16:36:06.917Z,5.20
2023-03-11T16:41:09.872Z,6.42
2023-03-11T16:46:12.720Z,4.42
2023-03-11T16:51:15.615Z,5.82
2023-03-11T16:56:19.393Z,5.78
2023-03-11T17:01:22.415Z,4.58
2023-03-11T17:06:25.500Z,6.99
2023-03-11T17:11:30.913Z,7.88
2023-03-11T17:16:35.742Z,5.85
2023-03-11T17:21:39.553Z,4.39
2023-03-11T17:26:42.343Z,4.96
2023-03-11T17:31:45.242Z,7.70
2023-03-11T17:36:48.138Z,6.19
2023-03-11T17:41:52.112Z,4.42
2023-03-11T17:46:55.131Z,5.65
2023-03-11T17:51:57.985Z,7.44
2023-03-11T17:57:00.880Z,5.24
2023-03-11T18:02:03.751Z,4.27
2023-03-11T18:07:06.629Z,6.54
2023-03-11T18:12:09.445Z,5.22
2023-03-11T18:17:12.329Z,3.91
2023-03-11T18:22:16.137Z,6.27
2023-03-11T18:27:18.989Z,6.52
2023-03-11T18:32:22.218Z,4.53
2023-03-11T18:37:25.286Z,4.10
2023-03-11T18:42:28.107Z,7.17
2023-03-11T18:47:35.288Z,6.50
2023-03-11T18:52:38.200Z,4.55
2023-03-11T18:57:43.253Z,4.14
2023-03-11T19:02:50.025Z,6.80
2023-03-11T19:07:52.865Z,5.23
2023-03-11T19:12:55.757Z,3.83
2023-03-11T19:18:06.571Z,2.98
2023-03-11T19:23:09.911Z,2.52
2023-03-11T19:28:12.740Z,5.50
2023-03-11T19:33:15.619Z,6.88
2023-03-11T19:38:18.717Z,4.72
2023-03-11T19:43:21.892Z,3.37
2023-03-11T19:48:24.844Z,3.16
2023-03-11T19:53:28.028Z,5.94
2023-03-11T19:58:31.276Z,4.56
2023-03-11T20:03:34.360Z,3.16
2023-03-11T20:08:38.004Z,3.42
2023-03-11T20:13:44.045Z,5.37
2023-03-11T20:18:50.900Z,3.78
2023-03-11T20:23:55.082Z,2.64
2023-03-11T20:28:57.955Z,1.96
2023-03-11T20:34:01.170Z,1.90
2023-03-11T20:39:04.824Z,5.31
2023-03-11T20:44:09.029Z,6.10
2023-03-11T20:49:11.902Z,4.12
2023-03-11T20:54:16.075Z,3.00
2023-03-11T20:59:18.993Z,2.31
2023-03-11T21:04:24.448Z,1.80
2023-03-11T21:09:27.401Z,1.90
2023-03-11T21:14:30.645Z,5.41
2023-03-11T21:19:33.512Z,5.48
2023-03-11T21:24:36.350Z,3.73
2023-03-11T21:29:39.214Z,2.79
2023-03-11T21:34:42.063Z,2.23
2023-03-11T21:39:44.931Z,1.84
2023-03-11T21:44:47.944Z,4.14
2023-03-11T21:49:51.036Z,7.08
2023-03-11T21:54:53.974Z,5.49
2023-03-11T21:59:57.035Z,3.94
2023-03-11T22:05:00.030Z,3.01
2023-03-11T22:10:02.976Z,2.37
2023-03-11T22:15:06.671Z,1.88
2023-03-11T22:20:10.991Z,3.18
2023-03-11T22:25:13.917Z,6.82
2023-03-11T22:30:16.966Z,5.66
2023-03-11T22:35:19.951Z,3.93
2023-03-11T22:40:22.828Z,2.97
2023-03-11T22:45:25.618Z,2.37
2023-03-11T22:50:28.471Z,2.72
2023-03-11T22:55:31.317Z,6.41
2023-03-11T23:00:34.781Z,6.28
2023-03-11T23:05:42.450Z,4.43
2023-03-11T23:10:47.415Z,3.36
2023-03-11T23:15:50.256Z,2.68
2023-03-11T23:20:53.081Z,2.18
2023-03-11T23:25:55.982Z,2.03
2023-03-11T23:31:04.413Z,5.12
2023-03-11T23:36:10.189Z,6.75
2023-03-11T23:41:15.558Z,4.78
2023-03-11T23:46:18.736Z,3.55
2023-03-11T23:51:21.564Z,2.83
2023-03-11T23:56:24.482Z,2.34
